Magne Viking — OURK2 — position and weather

sailwx.info

Track history (hours):
 
Tides and Currents Weather Stations Pressure Air Temp Water Temp Dewpoint Dewpoint Depression Visibility Wind Speed Wind Dir Waves Ship Positions

Magne Viking

Last reported at 2016-Jun-09 10:24 UTC. Time now 2016-Jun-30 21:23 UTC.
Position N 63°23' E 005°59'.
Warning: this ship's position is 21 days out of date.

Length 85 m; draft 6.5 m.

Type: Tug. MMSI: 219375000.

Date/timePositionNaut miles runAvg speedWind from/ knotsBaromVisibWave heightAir tempDewpointWater temp
2016-Jun-09 10:24N 63°23' E 005°59'1011.6
2016-Jun-09 09:34N 63°15' E 005°50'1111.5
2016-Jun-09 08:34N 63°04' E 005°40'161 7.6
2016-Jun-08 11:22N 60°23' E 005°19'0 0.0
2016-Jun-08 10:33N 60°23' E 005°19'0 0.0
2016-Jun-08 08:25N 60°23' E 005°19'0 0.0
2016-Jun-08 07:33N 60°23' E 005°19'0 0.0
2016-Jun-08 06:33N 60°23' E 005°19'0 0.0
2016-Jun-08 05:33N 60°23' E 005°19'6 5.7
2016-Jun-08 04:33N 60°24' E 005°07'10 9.9
2016-Jun-08 03:33N 60°33' E 004°56'1010.5
2016-Jun-08 02:33N 60°42' E 004°49'9 2.3
2016-Jun-07 22:30N 60°51' E 004°43'75 1.9
2016-Jun-06 07:17N 60°10' E 002°35'1 0.2
2016-Jun-06 04:07N 60°10' E 002°34'53 6.2
2016-Jun-05 19:26N 60°40' E 004°04'  
2016-Jun-02 21:24N 60°24' E 005°19'0 0.0
2016-Jun-02 20:33N 60°24' E 005°19'0 0.0
2016-Jun-02 19:31N 60°24' E 005°19'0 0.0
2016-Jun-02 18:32N 60°24' E 005°19'0 0.0
2016-Jun-02 17:32N 60°24' E 005°19'0 0.0
2016-Jun-02 16:30N 60°24' E 005°19'0 0.0
2016-Jun-02 15:28N 60°24' E 005°19'0 0.0
2016-Jun-02 14:25N 60°24' E 005°19'0 0.0
2016-Jun-02 13:32N 60°24' E 005°19'0 0.0
2016-Jun-02 12:33N 60°24' E 005°19'0 0.0
2016-Jun-02 11:33N 60°24' E 005°19'0 0.0
2016-Jun-02 10:19N 60°24' E 005°19'0 0.0
2016-Jun-02 09:29N 60°24' E 005°19'0 0.0
2016-Jun-02 08:26N 60°24' E 005°19'0 0.0
2016-Jun-02 07:27N 60°24' E 005°19'0 0.0
2016-Jun-02 06:25N 60°24' E 005°19'0 0.0
2016-Jun-02 05:31N 60°24' E 005°19'0 0.0
2016-Jun-02 04:29N 60°24' E 005°19'0 0.0
2016-Jun-02 03:30N 60°24' E 005°19'0 0.0
2016-Jun-02 02:30N 60°24' E 005°19'0 0.0
2016-Jun-02 01:28N 60°24' E 005°19'0 0.0
2016-Jun-02 00:26N 60°24' E 005°19'0 0.0
2016-Jun-01 23:32N 60°24' E 005°19'0 0.0
2016-Jun-01 22:33N 60°24' E 005°19'0 0.0
2016-Jun-01 21:31N 60°24' E 005°19'0 0.0
2016-Jun-01 20:31N 60°24' E 005°19'0 0.0
2016-Jun-01 19:29N 60°24' E 005°19'0 0.0
2016-Jun-01 18:27N 60°24' E 005°19'0 0.0
2016-Jun-01 17:33N 60°24' E 005°19'0 0.0
2016-Jun-01 16:22N 60°24' E 005°19'0 0.0
2016-Jun-01 15:23N 60°24' E 005°19'0 0.0
2016-Jun-01 14:32N 60°24' E 005°19'0 0.0
2016-Jun-01 13:30N 60°24' E 005°19'0 0.0
2016-Jun-01 12:28N 60°24' E 005°19'0 0.0
2016-Jun-01 11:26N 60°24' E 005°19'0 0.0
2016-Jun-01 10:26N 60°24' E 005°19'0 0.0
2016-Jun-01 09:24N 60°24' E 005°19'0 0.0
2016-Jun-01 08:30N 60°24' E 005°19'0 0.0
2016-Jun-01 07:28N 60°24' E 005°19'0 0.0
2016-Jun-01 06:29N 60°24' E 005°19'0 0.0
2016-Jun-01 05:27N 60°24' E 005°19'0 0.0
2016-Jun-01 04:24N 60°24' E 005°19'0 0.0
2016-Jun-01 03:25N 60°24' E 005°19'0 0.0
2016-Jun-01 02:31N 60°24' E 005°19'0 0.0
2016-Jun-01 01:32N 60°24' E 005°19'0 0.0
2016-Jun-01 00:30N 60°24' E 005°19'0 0.0
2016-May-31 23:31N 60°24' E 005°19'0 0.0
2016-May-31 22:28N 60°24' E 005°19'0 0.0
2016-May-31 21:26N 60°24' E 005°19'0 0.0
2016-May-31 20:32N 60°24' E 005°19'0 0.0
2016-May-31 19:33N 60°24' E 005°19'0 0.0
2016-May-31 18:31N 60°24' E 005°19'0 0.0
2016-May-31 17:32N 60°24' E 005°19'0 0.0
2016-May-31 16:29N 60°24' E 005°19'0 0.0
2016-May-31 15:27N 60°24' E 005°19'0 0.0
2016-May-31 14:25N 60°24' E 005°19'0 0.0
2016-May-31 13:31N 60°24' E 005°19'0 0.0
2016-May-31 12:32N 60°24' E 005°19'0 0.0
2016-May-31 11:33N 60°24' E 005°19'0 0.0
2016-May-31 10:30N 60°24' E 005°19'0 0.0
2016-May-31 09:28N 60°24' E 005°19'0 0.0
2016-May-31 08:26N 60°24' E 005°19'0 0.0
2016-May-31 07:26N 60°24' E 005°19'0 0.0
2016-May-31 06:33N 60°24' E 005°19'0 0.0
2016-May-31 04:31N 60°24' E 005°19'0 0.0
2016-May-31 03:29N 60°24' E 005°19'0 0.0
2016-May-31 02:30N 60°24' E 005°19'0 0.0
2016-May-31 01:27N 60°24' E 005°19'0 0.0
2016-May-31 00:25N 60°24' E 005°19'0 0.0
2016-May-30 23:20N 60°24' E 005°19'0 0.0
2016-May-30 22:32N 60°24' E 005°19'0 0.0
2016-May-30 21:33N 60°24' E 005°19'0 0.0
2016-May-30 20:31N 60°24' E 005°19'0 0.0
2016-May-30 19:28N 60°24' E 005°19'0 0.0
2016-May-30 18:26N 60°24' E 005°19'0 0.0
2016-May-30 17:33N 60°24' E 005°19'0 0.0
2016-May-30 16:33N 60°24' E 005°19'0 0.4
2016-May-30 15:33N 60°24' E 005°18'0 0.0
2016-May-30 14:33N 60°24' E 005°18'0 0.0
2016-May-30 13:33N 60°24' E 005°18'0 0.0
2016-May-30 12:33N 60°24' E 005°18'0 0.0
2016-May-30 11:33N 60°24' E 005°18'0 0.0
2016-May-30 10:33N 60°24' E 005°18'  
Track history (hours):
 
Tides and Currents Weather Stations Pressure Air Temp Water Temp Dewpoint Dewpoint Depression Visibility Wind Speed Wind Dir Waves Ship Positions

Magne Viking

Last reported at 2016-Jun-09 10:24 UTC. Time now 2016-Jun-30 21:23 UTC.
Position N 63°23' E 005°59'.
Warning: this ship's position is 21 days out of date.

Length 85 m; draft 6.5 m.

Type: Tug. MMSI: 219375000.

Date/timePositionNaut miles runAvg speedWind from/ knotsBaromVisibWave heightAir tempDewpointWater temp
2016-Jun-09 10:24N 63°23' E 005°59'1011.6
2016-Jun-09 09:34N 63°15' E 005°50'1111.5
2016-Jun-09 08:34N 63°04' E 005°40'161 7.6
2016-Jun-08 11:22N 60°23' E 005°19'0 0.0
2016-Jun-08 10:33N 60°23' E 005°19'0 0.0
2016-Jun-08 08:25N 60°23' E 005°19'0 0.0
2016-Jun-08 07:33N 60°23' E 005°19'0 0.0
2016-Jun-08 06:33N 60°23' E 005°19'0 0.0
2016-Jun-08 05:33N 60°23' E 005°19'6 5.7
2016-Jun-08 04:33N 60°24' E 005°07'10 9.9
2016-Jun-08 03:33N 60°33' E 004°56'1010.5
2016-Jun-08 02:33N 60°42' E 004°49'9 2.3
2016-Jun-07 22:30N 60°51' E 004°43'75 1.9
2016-Jun-06 07:17N 60°10' E 002°35'1 0.2
2016-Jun-06 04:07N 60°10' E 002°34'53 6.2
2016-Jun-05 19:26N 60°40' E 004°04'  
2016-Jun-02 21:24N 60°24' E 005°19'0 0.0
2016-Jun-02 20:33N 60°24' E 005°19'0 0.0
2016-Jun-02 19:31N 60°24' E 005°19'0 0.0
2016-Jun-02 18:32N 60°24' E 005°19'0 0.0
2016-Jun-02 17:32N 60°24' E 005°19'0 0.0
2016-Jun-02 16:30N 60°24' E 005°19'0 0.0
2016-Jun-02 15:28N 60°24' E 005°19'0 0.0
2016-Jun-02 14:25N 60°24' E 005°19'0 0.0
2016-Jun-02 13:32N 60°24' E 005°19'0 0.0
2016-Jun-02 12:33N 60°24' E 005°19'0 0.0
2016-Jun-02 11:33N 60°24' E 005°19'0 0.0
2016-Jun-02 10:19N 60°24' E 005°19'0 0.0
2016-Jun-02 09:29N 60°24' E 005°19'0 0.0
2016-Jun-02 08:26N 60°24' E 005°19'0 0.0
2016-Jun-02 07:27N 60°24' E 005°19'0 0.0
2016-Jun-02 06:25N 60°24' E 005°19'0 0.0
2016-Jun-02 05:31N 60°24' E 005°19'0 0.0
2016-Jun-02 04:29N 60°24' E 005°19'0 0.0
2016-Jun-02 03:30N 60°24' E 005°19'0 0.0
2016-Jun-02 02:30N 60°24' E 005°19'0 0.0
2016-Jun-02 01:28N 60°24' E 005°19'0 0.0
2016-Jun-02 00:26N 60°24' E 005°19'0 0.0
2016-Jun-01 23:32N 60°24' E 005°19'0 0.0
2016-Jun-01 22:33N 60°24' E 005°19'0 0.0
2016-Jun-01 21:31N 60°24' E 005°19'0 0.0
2016-Jun-01 20:31N 60°24' E 005°19'0 0.0
2016-Jun-01 19:29N 60°24' E 005°19'0 0.0
2016-Jun-01 18:27N 60°24' E 005°19'0 0.0
2016-Jun-01 17:33N 60°24' E 005°19'0 0.0
2016-Jun-01 16:22N 60°24' E 005°19'0 0.0
2016-Jun-01 15:23N 60°24' E 005°19'0 0.0
2016-Jun-01 14:32N 60°24' E 005°19'0 0.0
2016-Jun-01 13:30N 60°24' E 005°19'0 0.0
2016-Jun-01 12:28N 60°24' E 005°19'0 0.0
2016-Jun-01 11:26N 60°24' E 005°19'0 0.0
2016-Jun-01 10:26N 60°24' E 005°19'0 0.0
2016-Jun-01 09:24N 60°24' E 005°19'0 0.0
2016-Jun-01 08:30N 60°24' E 005°19'0 0.0
2016-Jun-01 07:28N 60°24' E 005°19'0 0.0
2016-Jun-01 06:29N 60°24' E 005°19'0 0.0
2016-Jun-01 05:27N 60°24' E 005°19'0 0.0
2016-Jun-01 04:24N 60°24' E 005°19'0 0.0
2016-Jun-01 03:25N 60°24' E 005°19'0 0.0
2016-Jun-01 02:31N 60°24' E 005°19'0 0.0
2016-Jun-01 01:32N 60°24' E 005°19'0 0.0
2016-Jun-01 00:30N 60°24' E 005°19'0 0.0
2016-May-31 23:31N 60°24' E 005°19'0 0.0
2016-May-31 22:28N 60°24' E 005°19'0 0.0
2016-May-31 21:26N 60°24' E 005°19'0 0.0
2016-May-31 20:32N 60°24' E 005°19'0 0.0
2016-May-31 19:33N 60°24' E 005°19'0 0.0
2016-May-31 18:31N 60°24' E 005°19'0 0.0
2016-May-31 17:32N 60°24' E 005°19'0 0.0
2016-May-31 16:29N 60°24' E 005°19'0 0.0
2016-May-31 15:27N 60°24' E 005°19'0 0.0
2016-May-31 14:25N 60°24' E 005°19'0 0.0
2016-May-31 13:31N 60°24' E 005°19'0 0.0
2016-May-31 12:32N 60°24' E 005°19'0 0.0
2016-May-31 11:33N 60°24' E 005°19'0 0.0
2016-May-31 10:30N 60°24' E 005°19'0 0.0
2016-May-31 09:28N 60°24' E 005°19'0 0.0
2016-May-31 08:26N 60°24' E 005°19'0 0.0
2016-May-31 07:26N 60°24' E 005°19'0 0.0
2016-May-31 06:33N 60°24' E 005°19'0 0.0
2016-May-31 04:31N 60°24' E 005°19'0 0.0
2016-May-31 03:29N 60°24' E 005°19'0 0.0
2016-May-31 02:30N 60°24' E 005°19'0 0.0
2016-May-31 01:27N 60°24' E 005°19'0 0.0
2016-May-31 00:25N 60°24' E 005°19'0 0.0
2016-May-30 23:20N 60°24' E 005°19'0 0.0
2016-May-30 22:32N 60°24' E 005°19'0 0.0
2016-May-30 21:33N 60°24' E 005°19'0 0.0
2016-May-30 20:31N 60°24' E 005°19'0 0.0
2016-May-30 19:28N 60°24' E 005°19'0 0.0
2016-May-30 18:26N 60°24' E 005°19'0 0.0
2016-May-30 17:33N 60°24' E 005°19'0 0.0
2016-May-30 16:33N 60°24' E 005°19'0 0.4
2016-May-30 15:33N 60°24' E 005°18'0 0.0
2016-May-30 14:33N 60°24' E 005°18'0 0.0
2016-May-30 13:33N 60°24' E 005°18'0 0.0
2016-May-30 12:33N 60°24' E 005°18'0 0.0
2016-May-30 11:33N 60°24' E 005°18'0 0.0
2016-May-30 10:33N 60°24' E 005°18'  

Dump ship's entire track history